Los Gatos, California
Current Conditions -  °F | °C
As of 9:53 AM on Thursday 30 Oct 2014 (Local Time) from KSJC Reporting Station
Broken Clouds Broken Clouds  
Wind Chill: 62°   Ceiling: 13000
Heat Index: 62°   Visibility: 10mi
Dew Point: 48°   Wind: 3mph
Humidity: 60%   Direction: 140°SE
Pressure: 29.94"   Gusts: NA
Location:  37.22°N, 121.97°W
Report Text: KSJC 301653Z 14003KT 10SM FEW060 SCT090 BKN130 17/09 A2994 RMK AO2 SLP138 T01670089
Loading
Personal Weather Stations






























Interactive Weather Map
Tropical Storm Tracking
New forecast layout! Learn more

10-Day Weather Forecast

Advertisements
Track Severe Weather on mobile